sensor_id;sensor_type;location;lat;lon;timestamp;temperature;humidity
19206;DHT22;59358;52.134;5.596;2023-05-14T00:00:40;13.00;99.90
19206;DHT22;59358;52.134;5.596;2023-05-14T00:03:08;12.90;99.90
19206;DHT22;59358;52.134;5.596;2023-05-14T00:05:34;12.90;99.90
19206;DHT22;59358;52.134;5.596;2023-05-14T00:08:01;12.90;99.90
19206;DHT22;59358;52.134;5.596;2023-05-14T00:10:28;12.80;99.90
19206;DHT22;59358;52.134;5.596;2023-05-14T00:12:55;12.80;99.90
19206;DHT22;59358;52.134;5.596;2023-05-14T00:15:22;12.80;99.90
19206;DHT22;59358;52.134;5.596;2023-05-14T00:17:48;12.70;99.90
19206;DHT22;59358;52.134;5.596;2023-05-14T00:20:16;12.70;99.90
19206;DHT22;59358;52.134;5.596;2023-05-14T00:22:43;12.70;99.90
19206;DHT22;59358;52.134;5.596;2023-05-14T00:25:10;12.70;99.90
19206;DHT22;59358;52.134;5.596;2023-05-14T00:27:37;12.70;99.90
19206;DHT22;59358;52.134;5.596;2023-05-14T00:30:05;12.70;99.90
19206;DHT22;59358;52.134;5.596;2023-05-14T00:32:32;12.60;99.90
19206;DHT22;59358;52.134;5.596;2023-05-14T00:34:59;12.60;99.90
19206;DHT22;59358;52.134;5.596;2023-05-14T00:37:28;12.60;99.90
19206;DHT22;59358;52.134;5.596;2023-05-14T00:39:55;12.50;99.90
19206;DHT22;59358;52.134;5.596;2023-05-14T00:42:23;12.50;99.90
19206;DHT22;59358;52.134;5.596;2023-05-14T00:44:51;12.40;99.90
19206;DHT22;59358;52.134;5.596;2023-05-14T00:47:18;12.40;99.90
19206;DHT22;59358;52.134;5.596;2023-05-14T00:49:45;12.40;99.90
19206;DHT22;59358;52.134;5.596;2023-05-14T00:52:12;12.40;99.90
19206;DHT22;59358;52.134;5.596;2023-05-14T00:54:41;12.40;99.90
19206;DHT22;59358;52.134;5.596;2023-05-14T00:57:08;12.30;99.90
19206;DHT22;59358;52.134;5.596;2023-05-14T00:59:35;12.30;99.90
19206;DHT22;59358;52.134;5.596;2023-05-14T01:02:05;12.30;99.90
19206;DHT22;59358;52.134;5.596;2023-05-14T01:04:31;12.20;99.90
19206;DHT22;59358;52.134;5.596;2023-05-14T01:07:06;12.20;99.90
19206;DHT22;59358;52.134;5.596;2023-05-14T01:09:41;12.20;99.90
19206;DHT22;59358;52.134;5.596;2023-05-14T01:12:15;12.10;99.90
19206;DHT22;59358;52.134;5.596;2023-05-14T01:14:47;12.20;99.90
19206;DHT22;59358;52.134;5.596;2023-05-14T01:17:17;12.10;99.90
19206;DHT22;59358;52.134;5.596;2023-05-14T01:19:46;12.20;99.90
19206;DHT22;59358;52.134;5.596;2023-05-14T01:22:14;12.10;99.90
19206;DHT22;59358;52.134;5.596;2023-05-14T01:24:41;12.10;99.90
19206;DHT22;59358;52.134;5.596;2023-05-14T01:27:12;12.00;99.90
19206;DHT22;59358;52.134;5.596;2023-05-14T01:29:46;12.00;99.90
19206;DHT22;59358;52.134;5.596;2023-05-14T01:32:16;12.00;99.90
19206;DHT22;59358;52.134;5.596;2023-05-14T01:34:45;11.90;99.90
19206;DHT22;59358;52.134;5.596;2023-05-14T01:37:14;11.90;99.90
19206;DHT22;59358;52.134;5.596;2023-05-14T01:39:41;11.90;99.90
19206;DHT22;59358;52.134;5.596;2023-05-14T01:42:08;11.90;99.90
19206;DHT22;59358;52.134;5.596;2023-05-14T01:44:35;11.90;99.90
19206;DHT22;59358;52.134;5.596;2023-05-14T01:47:02;11.80;99.90
19206;DHT22;59358;52.134;5.596;2023-05-14T01:49:29;11.80;99.90
19206;DHT22;59358;52.134;5.596;2023-05-14T01:51:57;11.80;99.90
19206;DHT22;59358;52.134;5.596;2023-05-14T01:54:25;11.80;99.90
19206;DHT22;59358;52.134;5.596;2023-05-14T01:56:51;11.80;99.90
19206;DHT22;59358;52.134;5.596;2023-05-14T01:59:18;11.70;99.90
19206;DHT22;59358;52.134;5.596;2023-05-14T02:01:45;11.70;99.90
19206;DHT22;59358;52.134;5.596;2023-05-14T02:04:12;11.70;99.90
19206;DHT22;59358;52.134;5.596;2023-05-14T02:06:38;11.60;99.90
19206;DHT22;59358;52.134;5.596;2023-05-14T02:09:05;11.60;99.90
19206;DHT22;59358;52.134;5.596;2023-05-14T02:11:33;11.60;99.90
19206;DHT22;59358;52.134;5.596;2023-05-14T02:14:00;11.60;99.90
19206;DHT22;59358;52.134;5.596;2023-05-14T02:16:27;11.60;99.90
19206;DHT22;59358;52.134;5.596;2023-05-14T02:18:53;11.50;99.90
19206;DHT22;59358;52.134;5.596;2023-05-14T02:21:20;11.50;99.90
19206;DHT22;59358;52.134;5.596;2023-05-14T02:23:47;11.50;99.90
19206;DHT22;59358;52.134;5.596;2023-05-14T02:26:14;11.50;99.90
19206;DHT22;59358;52.134;5.596;2023-05-14T02:28:42;11.50;99.90
19206;DHT22;59358;52.134;5.596;2023-05-14T02:31:10;11.40;99.90
19206;DHT22;59358;52.134;5.596;2023-05-14T02:33:36;11.40;99.90
19206;DHT22;59358;52.134;5.596;2023-05-14T02:36:03;11.40;99.90
19206;DHT22;59358;52.134;5.596;2023-05-14T02:38:30;11.40;99.90
19206;DHT22;59358;52.134;5.596;2023-05-14T02:40:57;11.40;99.90
19206;DHT22;59358;52.134;5.596;2023-05-14T02:43:23;11.40;99.90
19206;DHT22;59358;52.134;5.596;2023-05-14T02:45:51;11.30;99.90
19206;DHT22;59358;52.134;5.596;2023-05-14T02:48:18;11.30;99.90
19206;DHT22;59358;52.134;5.596;2023-05-14T02:50:45;11.30;99.90
19206;DHT22;59358;52.134;5.596;2023-05-14T02:53:12;11.40;99.90
19206;DHT22;59358;52.134;5.596;2023-05-14T02:55:39;11.30;99.90
19206;DHT22;59358;52.134;5.596;2023-05-14T02:58:06;11.30;99.90
19206;DHT22;59358;52.134;5.596;2023-05-14T03:00:32;11.20;99.90
19206;DHT22;59358;52.134;5.596;2023-05-14T03:03:01;11.20;99.90
19206;DHT22;59358;52.134;5.596;2023-05-14T03:05:28;11.20;99.90
19206;DHT22;59358;52.134;5.596;2023-05-14T03:07:54;11.20;99.90
19206;DHT22;59358;52.134;5.596;2023-05-14T03:10:21;11.20;99.90
19206;DHT22;59358;52.134;5.596;2023-05-14T03:12:48;11.20;99.90
19206;DHT22;59358;52.134;5.596;2023-05-14T03:15:14;11.10;99.90
19206;DHT22;59358;52.134;5.596;2023-05-14T03:17:41;11.10;99.90
19206;DHT22;59358;52.134;5.596;2023-05-14T03:20:11;11.10;99.90
19206;DHT22;59358;52.134;5.596;2023-05-14T03:22:38;11.10;99.90
19206;DHT22;59358;52.134;5.596;2023-05-14T03:25:05;11.10;99.90
19206;DHT22;59358;52.134;5.596;2023-05-14T03:27:32;11.10;99.90
19206;DHT22;59358;52.134;5.596;2023-05-14T03:29:59;11.10;99.90
19206;DHT22;59358;52.134;5.596;2023-05-14T03:32:26;11.00;99.90
19206;DHT22;59358;52.134;5.596;2023-05-14T03:34:52;11.10;99.90
19206;DHT22;59358;52.134;5.596;2023-05-14T03:37:21;11.10;99.90
19206;DHT22;59358;52.134;5.596;2023-05-14T03:39:48;11.10;99.90
19206;DHT22;59358;52.134;5.596;2023-05-14T03:42:15;11.10;99.90
19206;DHT22;59358;52.134;5.596;2023-05-14T03:44:42;11.10;99.90
19206;DHT22;59358;52.134;5.596;2023-05-14T03:47:09;11.10;99.90
19206;DHT22;59358;52.134;5.596;2023-05-14T03:49:36;11.10;99.90
19206;DHT22;59358;52.134;5.596;2023-05-14T03:52:03;11.10;99.90
19206;DHT22;59358;52.134;5.596;2023-05-14T03:54:31;11.00;99.90
19206;DHT22;59358;52.134;5.596;2023-05-14T03:56:58;11.00;99.90
19206;DHT22;59358;52.134;5.596;2023-05-14T03:59:24;11.00;99.90
19206;DHT22;59358;52.134;5.596;2023-05-14T04:01:51;11.00;99.90
19206;DHT22;59358;52.134;5.596;2023-05-14T04:04:18;11.00;99.90
19206;DHT22;59358;52.134;5.596;2023-05-14T04:06:45;11.00;99.90
19206;DHT22;59358;52.134;5.596;2023-05-14T04:09:12;11.00;99.90
19206;DHT22;59358;52.134;5.596;2023-05-14T04:11:40;11.00;99.90
19206;DHT22;59358;52.134;5.596;2023-05-14T04:14:06;11.00;99.90
19206;DHT22;59358;52.134;5.596;2023-05-14T04:16:33;11.00;99.90
19206;DHT22;59358;52.134;5.596;2023-05-14T04:19:02;11.00;99.90
19206;DHT22;59358;52.134;5.596;2023-05-14T04:21:29;11.10;99.90
19206;DHT22;59358;52.134;5.596;2023-05-14T04:23:55;11.10;99.90
19206;DHT22;59358;52.134;5.596;2023-05-14T04:26:22;11.10;99.90
19206;DHT22;59358;52.134;5.596;2023-05-14T04:28:50;11.10;99.90
19206;DHT22;59358;52.134;5.596;2023-05-14T04:31:17;11.20;99.90
19206;DHT22;59358;52.134;5.596;2023-05-14T04:33:44;11.20;99.90
19206;DHT22;59358;52.134;5.596;2023-05-14T04:36:11;11.20;99.90
19206;DHT22;59358;52.134;5.596;2023-05-14T04:38:38;11.20;99.90
19206;DHT22;59358;52.134;5.596;2023-05-14T04:41:05;11.20;99.90
19206;DHT22;59358;52.134;5.596;2023-05-14T04:43:32;11.30;99.90
19206;DHT22;59358;52.134;5.596;2023-05-14T04:46:00;11.40;99.90
19206;DHT22;59358;52.134;5.596;2023-05-14T04:48:27;11.40;99.90
19206;DHT22;59358;52.134;5.596;2023-05-14T04:50:54;11.50;99.90
19206;DHT22;59358;52.134;5.596;2023-05-14T04:53:21;11.60;99.90
19206;DHT22;59358;52.134;5.596;2023-05-14T04:55:48;11.60;99.90
19206;DHT22;59358;52.134;5.596;2023-05-14T04:58:14;11.60;99.90
19206;DHT22;59358;52.134;5.596;2023-05-14T05:00:41;11.60;99.90
19206;DHT22;59358;52.134;5.596;2023-05-14T05:03:10;11.70;99.90
19206;DHT22;59358;52.134;5.596;2023-05-14T05:05:36;11.70;99.90
19206;DHT22;59358;52.134;5.596;2023-05-14T05:08:03;11.80;99.90
19206;DHT22;59358;52.134;5.596;2023-05-14T05:10:30;11.80;99.90
19206;DHT22;59358;52.134;5.596;2023-05-14T05:12:57;11.80;99.90
19206;DHT22;59358;52.134;5.596;2023-05-14T05:15:24;11.80;99.90
19206;DHT22;59358;52.134;5.596;2023-05-14T05:17:50;11.90;99.90
19206;DHT22;59358;52.134;5.596;2023-05-14T05:20:19;12.00;99.90
19206;DHT22;59358;52.134;5.596;2023-05-14T05:22:45;12.00;99.90
19206;DHT22;59358;52.134;5.596;2023-05-14T05:25:12;12.10;99.90
19206;DHT22;59358;52.134;5.596;2023-05-14T05:27:39;12.20;99.90
19206;DHT22;59358;52.134;5.596;2023-05-14T05:30:07;12.30;99.90
19206;DHT22;59358;52.134;5.596;2023-05-14T05:32:34;12.40;99.90
19206;DHT22;59358;52.134;5.596;2023-05-14T05:35:01;12.50;99.90
19206;DHT22;59358;52.134;5.596;2023-05-14T05:37:30;12.60;99.90
19206;DHT22;59358;52.134;5.596;2023-05-14T05:39:57;12.70;99.90
19206;DHT22;59358;52.134;5.596;2023-05-14T05:42:24;12.80;99.90
19206;DHT22;59358;52.134;5.596;2023-05-14T05:44:51;12.90;99.90
19206;DHT22;59358;52.134;5.596;2023-05-14T05:47:18;13.00;99.90
19206;DHT22;59358;52.134;5.596;2023-05-14T05:49:44;13.10;99.90
19206;DHT22;59358;52.134;5.596;2023-05-14T05:52:11;13.20;99.90
19206;DHT22;59358;52.134;5.596;2023-05-14T05:54:40;13.10;99.90
19206;DHT22;59358;52.134;5.596;2023-05-14T05:57:06;13.20;99.90
19206;DHT22;59358;52.134;5.596;2023-05-14T05:59:33;13.20;99.90
19206;DHT22;59358;52.134;5.596;2023-05-14T06:02:00;13.30;99.90
19206;DHT22;59358;52.134;5.596;2023-05-14T06:04:27;13.30;99.90
19206;DHT22;59358;52.134;5.596;2023-05-14T06:06:54;13.40;99.90
19206;DHT22;59358;52.134;5.596;2023-05-14T06:09:20;13.50;99.90
19206;DHT22;59358;52.134;5.596;2023-05-14T06:11:48;13.50;99.90
19206;DHT22;59358;52.134;5.596;2023-05-14T06:14:15;13.60;99.90
19206;DHT22;59358;52.134;5.596;2023-05-14T06:16:43;13.70;99.90
19206;DHT22;59358;52.134;5.596;2023-05-14T06:19:09;13.70;99.90
19206;DHT22;59358;52.134;5.596;2023-05-14T06:21:36;13.70;99.90
19206;DHT22;59358;52.134;5.596;2023-05-14T06:24:03;13.70;99.90
19206;DHT22;59358;52.134;5.596;2023-05-14T06:26:30;13.90;99.90
19206;DHT22;59358;52.134;5.596;2023-05-14T06:28:58;14.10;99.90
19206;DHT22;59358;52.134;5.596;2023-05-14T06:31:25;14.20;99.90
19206;DHT22;59358;52.134;5.596;2023-05-14T06:33:52;14.40;99.90
19206;DHT22;59358;52.134;5.596;2023-05-14T06:36:19;14.40;99.90
19206;DHT22;59358;52.134;5.596;2023-05-14T06:38:45;14.40;99.90
19206;DHT22;59358;52.134;5.596;2023-05-14T06:41:12;14.30;99.90
19206;DHT22;59358;52.134;5.596;2023-05-14T06:43:39;14.40;99.90
19206;DHT22;59358;52.134;5.596;2023-05-14T06:46:07;14.50;99.90
19206;DHT22;59358;52.134;5.596;2023-05-14T06:48:34;14.60;99.90
19206;DHT22;59358;52.134;5.596;2023-05-14T06:51:00;14.60;99.90
19206;DHT22;59358;52.134;5.596;2023-05-14T06:53:28;14.70;99.90
19206;DHT22;59358;52.134;5.596;2023-05-14T06:55:55;14.70;99.90
19206;DHT22;59358;52.134;5.596;2023-05-14T06:58:22;14.70;99.90
19206;DHT22;59358;52.134;5.596;2023-05-14T07:00:49;14.90;99.90
19206;DHT22;59358;52.134;5.596;2023-05-14T07:03:17;15.10;99.90
19206;DHT22;59358;52.134;5.596;2023-05-14T07:05:44;15.00;99.90
19206;DHT22;59358;52.134;5.596;2023-05-14T07:08:11;15.10;99.90
19206;DHT22;59358;52.134;5.596;2023-05-14T07:10:38;15.20;99.90
19206;DHT22;59358;52.134;5.596;2023-05-14T07:13:05;15.30;99.90
19206;DHT22;59358;52.134;5.596;2023-05-14T07:15:31;15.30;99.90
19206;DHT22;59358;52.134;5.596;2023-05-14T07:17:58;15.40;99.90
19206;DHT22;59358;52.134;5.596;2023-05-14T07:20:27;15.50;99.90
19206;DHT22;59358;52.134;5.596;2023-05-14T07:22:53;15.70;99.90
19206;DHT22;59358;52.134;5.596;2023-05-14T07:25:21;15.80;99.90
19206;DHT22;59358;52.134;5.596;2023-05-14T07:27:48;15.90;99.90
19206;DHT22;59358;52.134;5.596;2023-05-14T07:30:15;16.10;99.90
19206;DHT22;59358;52.134;5.596;2023-05-14T07:32:41;16.20;99.90
19206;DHT22;59358;52.134;5.596;2023-05-14T07:35:08;16.40;99.90
19206;DHT22;59358;52.134;5.596;2023-05-14T07:37:37;16.60;99.90
19206;DHT22;59358;52.134;5.596;2023-05-14T07:40:05;16.80;99.90
19206;DHT22;59358;52.134;5.596;2023-05-14T07:42:32;16.90;99.90
19206;DHT22;59358;52.134;5.596;2023-05-14T07:44:59;16.80;99.90
19206;DHT22;59358;52.134;5.596;2023-05-14T07:47:25;16.80;99.90
19206;DHT22;59358;52.134;5.596;2023-05-14T07:49:53;16.80;99.90
19206;DHT22;59358;52.134;5.596;2023-05-14T07:52:20;16.70;99.90
19206;DHT22;59358;52.134;5.596;2023-05-14T07:54:49;16.80;99.90
19206;DHT22;59358;52.134;5.596;2023-05-14T07:57:16;16.90;99.90
19206;DHT22;59358;52.134;5.596;2023-05-14T07:59:43;17.10;99.90
19206;DHT22;59358;52.134;5.596;2023-05-14T08:02:10;17.30;99.90
19206;DHT22;59358;52.134;5.596;2023-05-14T08:04:38;17.30;99.90
19206;DHT22;59358;52.134;5.596;2023-05-14T08:07:05;17.40;99.90
19206;DHT22;59358;52.134;5.596;2023-05-14T08:09:33;17.50;99.90
19206;DHT22;59358;52.134;5.596;2023-05-14T08:12:01;17.60;99.90
19206;DHT22;59358;52.134;5.596;2023-05-14T08:14:28;17.50;99.90
19206;DHT22;59358;52.134;5.596;2023-05-14T08:16:54;17.70;99.90
19206;DHT22;59358;52.134;5.596;2023-05-14T08:19:22;17.80;99.90
19206;DHT22;59358;52.134;5.596;2023-05-14T08:21:49;17.60;99.90
19206;DHT22;59358;52.134;5.596;2023-05-14T08:24:17;17.60;99.90
19206;DHT22;59358;52.134;5.596;2023-05-14T08:26:44;17.50;99.90
19206;DHT22;59358;52.134;5.596;2023-05-14T08:29:12;17.40;99.90
19206;DHT22;59358;52.134;5.596;2023-05-14T08:31:39;17.50;99.90
19206;DHT22;59358;52.134;5.596;2023-05-14T08:34:06;17.50;99.90
19206;DHT22;59358;52.134;5.596;2023-05-14T08:36:32;17.30;99.90
19206;DHT22;59358;52.134;5.596;2023-05-14T08:38:59;17.10;99.90
19206;DHT22;59358;52.134;5.596;2023-05-14T08:41:26;17.10;99.90
19206;DHT22;59358;52.134;5.596;2023-05-14T08:43:58;17.30;99.90
19206;DHT22;59358;52.134;5.596;2023-05-14T08:46:30;17.50;99.90
19206;DHT22;59358;52.134;5.596;2023-05-14T08:49:03;17.70;99.90
19206;DHT22;59358;52.134;5.596;2023-05-14T08:51:33;18.00;99.90
19206;DHT22;59358;52.134;5.596;2023-05-14T08:54:02;18.00;99.90
19206;DHT22;59358;52.134;5.596;2023-05-14T08:56:31;18.00;99.90
19206;DHT22;59358;52.134;5.596;2023-05-14T08:58:58;18.30;99.90
19206;DHT22;59358;52.134;5.596;2023-05-14T09:01:29;18.40;99.90
19206;DHT22;59358;52.134;5.596;2023-05-14T09:03:57;18.30;99.90
19206;DHT22;59358;52.134;5.596;2023-05-14T09:06:27;18.40;99.90
19206;DHT22;59358;52.134;5.596;2023-05-14T09:08:55;18.50;99.90
19206;DHT22;59358;52.134;5.596;2023-05-14T09:11:22;18.60;99.90
19206;DHT22;59358;52.134;5.596;2023-05-14T09:13:49;18.80;99.90
19206;DHT22;59358;52.134;5.596;2023-05-14T09:16:17;18.80;99.90
19206;DHT22;59358;52.134;5.596;2023-05-14T09:18:45;18.80;99.90
19206;DHT22;59358;52.134;5.596;2023-05-14T09:21:13;18.80;99.90
19206;DHT22;59358;52.134;5.596;2023-05-14T09:23:41;18.90;99.90
19206;DHT22;59358;52.134;5.596;2023-05-14T09:26:08;19.00;99.90
19206;DHT22;59358;52.134;5.596;2023-05-14T09:28:38;19.10;99.90
19206;DHT22;59358;52.134;5.596;2023-05-14T09:31:07;19.10;99.90
19206;DHT22;59358;52.134;5.596;2023-05-14T09:33:34;19.30;99.90
19206;DHT22;59358;52.134;5.596;2023-05-14T09:36:02;19.40;99.90
19206;DHT22;59358;52.134;5.596;2023-05-14T09:38:29;19.40;99.90
19206;DHT22;59358;52.134;5.596;2023-05-14T09:40:57;19.40;99.90
19206;DHT22;59358;52.134;5.596;2023-05-14T09:43:23;19.40;99.90
19206;DHT22;59358;52.134;5.596;2023-05-14T09:45:50;19.40;99.90
19206;DHT22;59358;52.134;5.596;2023-05-14T09:48:18;19.40;99.90
19206;DHT22;59358;52.134;5.596;2023-05-14T09:50:45;19.60;99.90
19206;DHT22;59358;52.134;5.596;2023-05-14T09:53:13;20.10;99.90
19206;DHT22;59358;52.134;5.596;2023-05-14T09:55:42;20.10;99.90
19206;DHT22;59358;52.134;5.596;2023-05-14T09:58:09;20.30;99.90
19206;DHT22;59358;52.134;5.596;2023-05-14T10:00:36;20.30;99.90
19206;DHT22;59358;52.134;5.596;2023-05-14T10:03:04;20.30;99.90
19206;DHT22;59358;52.134;5.596;2023-05-14T10:05:34;20.70;99.90
19206;DHT22;59358;52.134;5.596;2023-05-14T10:08:06;20.70;99.90
19206;DHT22;59358;52.134;5.596;2023-05-14T10:10:36;21.00;99.90
19206;DHT22;59358;52.134;5.596;2023-05-14T10:13:06;21.00;99.90
19206;DHT22;59358;52.134;5.596;2023-05-14T10:15:39;21.00;99.90
19206;DHT22;59358;52.134;5.596;2023-05-14T10:18:09;20.90;99.90
19206;DHT22;59358;52.134;5.596;2023-05-14T10:20:39;21.10;99.90
19206;DHT22;59358;52.134;5.596;2023-05-14T10:23:06;21.10;99.90
19206;DHT22;59358;52.134;5.596;2023-05-14T10:25:33;21.30;99.90
19206;DHT22;59358;52.134;5.596;2023-05-14T10:28:03;21.40;99.90
19206;DHT22;59358;52.134;5.596;2023-05-14T10:30:31;21.30;99.90
19206;DHT22;59358;52.134;5.596;2023-05-14T10:33:08;21.50;99.90
19206;DHT22;59358;52.134;5.596;2023-05-14T10:35:55;21.40;99.90
19206;DHT22;59358;52.134;5.596;2023-05-14T10:38:23;21.80;99.90
19206;DHT22;59358;52.134;5.596;2023-05-14T10:40:54;21.70;99.90
19206;DHT22;59358;52.134;5.596;2023-05-14T10:43:24;21.70;99.90
19206;DHT22;59358;52.134;5.596;2023-05-14T10:45:51;21.80;99.90
19206;DHT22;59358;52.134;5.596;2023-05-14T10:48:19;22.20;99.90
19206;DHT22;59358;52.134;5.596;2023-05-14T10:50:46;22.50;99.90
19206;DHT22;59358;52.134;5.596;2023-05-14T10:53:14;22.50;99.90
19206;DHT22;59358;52.134;5.596;2023-05-14T10:55:42;23.00;99.90
19206;DHT22;59358;52.134;5.596;2023-05-14T10:58:09;23.00;99.90
19206;DHT22;59358;52.134;5.596;2023-05-14T11:00:39;22.80;99.90
19206;DHT22;59358;52.134;5.596;2023-05-14T11:03:06;22.50;99.90
19206;DHT22;59358;52.134;5.596;2023-05-14T11:05:33;22.40;99.90
19206;DHT22;59358;52.134;5.596;2023-05-14T11:08:04;22.20;99.90
19206;DHT22;59358;52.134;5.596;2023-05-14T11:10:33;22.40;99.90
19206;DHT22;59358;52.134;5.596;2023-05-14T11:13:00;22.50;99.90
19206;DHT22;59358;52.134;5.596;2023-05-14T11:15:27;22.70;99.90
19206;DHT22;59358;52.134;5.596;2023-05-14T11:17:55;23.00;99.90
19206;DHT22;59358;52.134;5.596;2023-05-14T11:20:22;23.20;99.90
19206;DHT22;59358;52.134;5.596;2023-05-14T11:22:49;23.20;99.90
19206;DHT22;59358;52.134;5.596;2023-05-14T11:25:16;23.40;99.90
19206;DHT22;59358;52.134;5.596;2023-05-14T11:27:44;23.70;99.90
19206;DHT22;59358;52.134;5.596;2023-05-14T11:30:13;23.60;99.90
19206;DHT22;59358;52.134;5.596;2023-05-14T11:32:41;23.80;99.90
19206;DHT22;59358;52.134;5.596;2023-05-14T11:35:10;24.20;99.90
19206;DHT22;59358;52.134;5.596;2023-05-14T11:37:37;24.70;99.90
19206;DHT22;59358;52.134;5.596;2023-05-14T11:40:07;24.90;99.90
19206;DHT22;59358;52.134;5.596;2023-05-14T11:42:36;24.90;99.90
19206;DHT22;59358;52.134;5.596;2023-05-14T11:45:03;24.70;99.90
19206;DHT22;59358;52.134;5.596;2023-05-14T11:47:30;24.40;99.80
19206;DHT22;59358;52.134;5.596;2023-05-14T11:49:58;24.20;99.90
19206;DHT22;59358;52.134;5.596;2023-05-14T11:52:26;24.30;99.90
19206;DHT22;59358;52.134;5.596;2023-05-14T11:54:53;23.90;99.90
19206;DHT22;59358;52.134;5.596;2023-05-14T11:57:21;23.70;99.90
19206;DHT22;59358;52.134;5.596;2023-05-14T11:59:48;23.80;99.90
19206;DHT22;59358;52.134;5.596;2023-05-14T12:02:20;23.70;99.90
19206;DHT22;59358;52.134;5.596;2023-05-14T12:04:49;23.70;99.90
19206;DHT22;59358;52.134;5.596;2023-05-14T12:07:16;23.70;99.90
19206;DHT22;59358;52.134;5.596;2023-05-14T12:09:46;23.80;99.90
19206;DHT22;59358;52.134;5.596;2023-05-14T12:12:16;23.70;99.90
19206;DHT22;59358;52.134;5.596;2023-05-14T12:14:43;23.80;99.90
19206;DHT22;59358;52.134;5.596;2023-05-14T12:17:12;23.90;99.90
19206;DHT22;59358;52.134;5.596;2023-05-14T12:19:40;24.10;99.70
19206;DHT22;59358;52.134;5.596;2023-05-14T12:22:08;24.30;99.90
19206;DHT22;59358;52.134;5.596;2023-05-14T12:24:35;24.20;99.90
19206;DHT22;59358;52.134;5.596;2023-05-14T12:27:06;23.80;99.90
19206;DHT22;59358;52.134;5.596;2023-05-14T12:29:37;23.90;99.90
19206;DHT22;59358;52.134;5.596;2023-05-14T12:32:07;23.90;99.90
19206;DHT22;59358;52.134;5.596;2023-05-14T12:34:35;24.00;99.90
19206;DHT22;59358;52.134;5.596;2023-05-14T12:37:02;24.10;99.90
19206;DHT22;59358;52.134;5.596;2023-05-14T12:39:31;24.20;99.90
19206;DHT22;59358;52.134;5.596;2023-05-14T12:41:58;24.30;99.80
19206;DHT22;59358;52.134;5.596;2023-05-14T12:44:27;24.30;99.80
19206;DHT22;59358;52.134;5.596;2023-05-14T12:46:54;24.10;99.50
19206;DHT22;59358;52.134;5.596;2023-05-14T12:49:20;24.20;99.70
19206;DHT22;59358;52.134;5.596;2023-05-14T12:51:47;24.40;99.80
19206;DHT22;59358;52.134;5.596;2023-05-14T12:54:14;24.70;99.00
19206;DHT22;59358;52.134;5.596;2023-05-14T12:56:41;24.80;97.80
19206;DHT22;59358;52.134;5.596;2023-05-14T12:59:08;25.00;98.60
19206;DHT22;59358;52.134;5.596;2023-05-14T13:01:36;24.90;98.40
19206;DHT22;59358;52.134;5.596;2023-05-14T13:04:04;25.10;98.60
19206;DHT22;59358;52.134;5.596;2023-05-14T13:06:31;25.30;98.10
19206;DHT22;59358;52.134;5.596;2023-05-14T13:08:58;25.50;97.60
19206;DHT22;59358;52.134;5.596;2023-05-14T13:11:27;25.40;97.20
19206;DHT22;59358;52.134;5.596;2023-05-14T13:13:56;25.60;97.30
19206;DHT22;59358;52.134;5.596;2023-05-14T13:16:24;25.60;96.90
19206;DHT22;59358;52.134;5.596;2023-05-14T13:18:52;25.90;97.70
19206;DHT22;59358;52.134;5.596;2023-05-14T13:21:19;25.90;98.00
19206;DHT22;59358;52.134;5.596;2023-05-14T13:23:46;26.10;98.00
19206;DHT22;59358;52.134;5.596;2023-05-14T13:26:12;26.20;96.70
19206;DHT22;59358;52.134;5.596;2023-05-14T13:28:39;25.90;96.70
19206;DHT22;59358;52.134;5.596;2023-05-14T13:31:08;25.90;97.30
19206;DHT22;59358;52.134;5.596;2023-05-14T13:33:35;26.10;97.40
19206;DHT22;59358;52.134;5.596;2023-05-14T13:36:04;26.50;97.70
19206;DHT22;59358;52.134;5.596;2023-05-14T13:38:33;26.40;96.40
19206;DHT22;59358;52.134;5.596;2023-05-14T13:40:59;26.60;96.90
19206;DHT22;59358;52.134;5.596;2023-05-14T13:43:28;26.70;94.60
19206;DHT22;59358;52.134;5.596;2023-05-14T13:45:55;26.60;95.80
19206;DHT22;59358;52.134;5.596;2023-05-14T13:48:22;26.60;95.70
19206;DHT22;59358;52.134;5.596;2023-05-14T13:50:49;27.00;93.50
19206;DHT22;59358;52.134;5.596;2023-05-14T13:53:18;26.80;95.50
19206;DHT22;59358;52.134;5.596;2023-05-14T13:55:45;26.20;96.00
19206;DHT22;59358;52.134;5.596;2023-05-14T13:58:12;25.80;96.70
19206;DHT22;59358;52.134;5.596;2023-05-14T14:00:39;25.80;96.40
19206;DHT22;59358;52.134;5.596;2023-05-14T14:03:06;25.80;96.80
19206;DHT22;59358;52.134;5.596;2023-05-14T14:05:34;26.00;96.40
19206;DHT22;59358;52.134;5.596;2023-05-14T14:08:00;26.20;96.70
19206;DHT22;59358;52.134;5.596;2023-05-14T14:10:29;26.10;96.70
19206;DHT22;59358;52.134;5.596;2023-05-14T14:12:56;26.00;95.80
19206;DHT22;59358;52.134;5.596;2023-05-14T14:15:23;25.90;96.20
19206;DHT22;59358;52.134;5.596;2023-05-14T14:17:50;25.40;96.40
19206;DHT22;59358;52.134;5.596;2023-05-14T14:20:17;25.20;96.60
19206;DHT22;59358;52.134;5.596;2023-05-14T14:22:43;24.90;96.80
19206;DHT22;59358;52.134;5.596;2023-05-14T14:25:10;24.90;97.70
19206;DHT22;59358;52.134;5.596;2023-05-14T14:27:39;25.00;97.70
19206;DHT22;59358;52.134;5.596;2023-05-14T14:30:07;25.10;97.30
19206;DHT22;59358;52.134;5.596;2023-05-14T14:32:40;25.20;96.50
19206;DHT22;59358;52.134;5.596;2023-05-14T14:35:08;24.90;96.20
19206;DHT22;59358;52.134;5.596;2023-05-14T14:37:34;24.80;97.30
19206;DHT22;59358;52.134;5.596;2023-05-14T14:40:01;24.80;98.70
19206;DHT22;59358;52.134;5.596;2023-05-14T14:42:28;25.10;99.00
19206;DHT22;59358;52.134;5.596;2023-05-14T14:44:56;25.40;97.90
19206;DHT22;59358;52.134;5.596;2023-05-14T14:47:23;25.70;97.60
19206;DHT22;59358;52.134;5.596;2023-05-14T14:49:50;25.70;98.10
19206;DHT22;59358;52.134;5.596;2023-05-14T14:52:17;25.90;97.30
19206;DHT22;59358;52.134;5.596;2023-05-14T14:54:43;25.70;96.90
19206;DHT22;59358;52.134;5.596;2023-05-14T14:57:10;25.90;96.80
19206;DHT22;59358;52.134;5.596;2023-05-14T14:59:37;26.10;96.80
19206;DHT22;59358;52.134;5.596;2023-05-14T15:02:05;26.10;95.50
19206;DHT22;59358;52.134;5.596;2023-05-14T15:04:33;25.90;96.80
19206;DHT22;59358;52.134;5.596;2023-05-14T15:07:01;25.80;96.50
19206;DHT22;59358;52.134;5.596;2023-05-14T15:09:28;25.30;97.10
19206;DHT22;59358;52.134;5.596;2023-05-14T15:11:55;25.20;97.60
19206;DHT22;59358;52.134;5.596;2023-05-14T15:14:21;25.50;96.50
19206;DHT22;59358;52.134;5.596;2023-05-14T15:16:48;25.80;96.20
19206;DHT22;59358;52.134;5.596;2023-05-14T15:19:17;26.10;96.30
19206;DHT22;59358;52.134;5.596;2023-05-14T15:21:43;26.20;96.90
19206;DHT22;59358;52.134;5.596;2023-05-14T15:24:10;26.80;96.00
19206;DHT22;59358;52.134;5.596;2023-05-14T15:26:40;27.60;95.90
19206;DHT22;59358;52.134;5.596;2023-05-14T15:29:15;27.70;94.90
19206;DHT22;59358;52.134;5.596;2023-05-14T15:31:43;27.70;94.90